Time;durP1;ratioP1;P1;durP2;ratioP2;P2;SDS_P1;SDS_P2;PMS_P1;PMS_P2;Temp;Humidity;BMP_temperature;BMP_pressure;BME280_temperature;BME280_humidity;BME280_pressure;Samples;Min_cycle;Max_cycle;Signal;HPM_P1;HPM_P2
2022/12/02 05:00:43;;;;;;;1999.90;999.90;;;4.60;99.90;;;;;;5848307;23;20046;-73
2022/12/02 05:03:08;;;;;;;1999.90;999.90;;;4.60;99.90;;;;;;4997765;28;20480;-73
2022/12/02 05:05:34;;;;;;;1999.90;999.90;;;4.50;99.90;;;;;;4997773;28;20082;-73
2022/12/02 05:08:00;;;;;;;1999.90;999.90;;;4.50;99.90;;;;;;4997842;28;20031;-73
2022/12/02 05:10:26;;;;;;;1999.90;999.90;;;4.50;99.90;;;;;;4997202;28;20480;-73
2022/12/02 05:12:52;;;;;;;1999.90;999.90;;;4.50;99.90;;;;;;4997679;28;20169;-73
2022/12/02 05:15:19;;;;;;;1999.90;999.90;;;4.60;99.90;;;;;;4998565;28;20046;-73
2022/12/02 05:17:44;;;;;;;1999.90;999.90;;;4.50;99.90;;;;;;4997654;28;20070;-73
2022/12/02 05:20:13;;;;;;;1999.90;999.90;;;4.50;99.90;;;;;;4997289;28;20505;-73
2022/12/02 05:22:39;;;;;;;1999.90;999.90;;;4.50;99.90;;;;;;4997478;28;20085;-73
2022/12/02 05:25:05;;;;;;;1999.90;999.90;;;4.40;99.90;;;;;;4997277;28;20549;-73
2022/12/02 05:27:30;;;;;;;1999.90;999.90;;;4.40;99.90;;;;;;4997309;28;20027;-74
2022/12/02 05:29:56;;;;;;;1999.90;999.90;;;4.50;99.90;;;;;;4997339;28;20085;-74
2022/12/02 05:32:22;;;;;;;1999.90;999.90;;;4.50;99.90;;;;;;4997182;28;20034;-73
2022/12/02 05:34:47;;;;;;;1999.90;999.90;;;4.50;99.90;;;;;;4997190;28;20039;-74
2022/12/02 05:37:13;;;;;;;1999.90;999.90;;;4.40;99.90;;;;;;4995720;28;20038;-74
2022/12/02 05:39:39;;;;;;;1999.90;999.90;;;4.40;99.90;;;;;;4996044;28;20038;-74
2022/12/02 05:42:10;;;;;;;1999.90;999.90;;;4.40;99.90;;;;;;4994997;28;20038;-74
2022/12/02 05:44:37;;;;;;;1999.90;999.90;;;4.40;99.90;;;;;;4997158;28;20133;-74
2022/12/02 05:47:10;;;;;;;1999.90;999.90;;;4.40;99.90;;;;;;4997107;28;20554;-74
2022/12/02 05:49:37;;;;;;;1999.90;999.90;;;4.40;99.90;;;;;;4994637;28;20041;-74
2022/12/02 05:52:23;;;;;;;1999.90;999.90;;;4.40;99.90;;;;;;4996411;28;20071;-73
2022/12/02 05:54:54;;;;;;;1999.90;999.90;;;4.40;99.90;;;;;;4996778;28;20066;-74
2022/12/02 05:57:24;;;;;;;1999.90;999.90;;;4.40;99.90;;;;;;4996704;28;20085;-74
2022/12/02 06:00:00;;;;;;;1999.90;999.90;;;4.40;99.90;;;;;;4996645;28;20037;-73
2022/12/02 06:02:32;;;;;;;1999.90;999.90;;;4.40;99.90;;;;;;4996741;28;20445;-74
2022/12/02 06:04:58;;;;;;;1999.90;999.90;;;4.40;99.90;;;;;;4995057;28;20038;-74
2022/12/02 06:07:24;;;;;;;1999.90;999.90;;;4.40;99.90;;;;;;4996852;28;20374;-74
2022/12/02 06:09:52;;;;;;;1999.90;999.90;;;4.30;99.90;;;;;;4996454;28;20174;-73
2022/12/02 06:12:20;;;;;;;1999.90;999.90;;;4.30;99.90;;;;;;4996392;28;20031;-74
2022/12/02 06:14:53;;;;;;;1999.90;999.90;;;4.30;99.90;;;;;;4996295;28;20039;-74
2022/12/02 06:17:20;;;;;;;1999.90;999.90;;;4.20;99.90;;;;;;4995052;28;20170;-74
2022/12/02 06:19:52;;;;;;;1999.90;999.90;;;4.20;99.90;;;;;;4996380;28;20034;-74
2022/12/02 06:22:31;;;;;;;1999.90;999.90;;;4.20;99.90;;;;;;4996653;28;20102;-74
2022/12/02 06:25:00;;;;;;;1999.90;999.90;;;4.20;99.90;;;;;;4996441;28;20046;-74
2022/12/02 06:27:27;;;;;;;1999.90;999.90;;;4.20;99.90;;;;;;4996324;28;20504;-74
2022/12/02 06:30:00;;;;;;;1999.90;999.90;;;4.10;99.90;;;;;;4995992;28;20129;-74
2022/12/02 06:32:38;;;;;;;1999.90;999.90;;;4.10;99.90;;;;;;4990375;28;20035;-74
2022/12/02 06:35:21;;;;;;;1999.90;999.90;;;4.10;99.90;;;;;;4975408;28;20039;-74
2022/12/02 06:37:47;;;;;;;1999.90;999.90;;;4.10;99.90;;;;;;4976963;28;20031;-73
2022/12/02 06:40:33;;;;;;;1999.90;999.90;;;4.20;99.90;;;;;;4975130;28;20032;-73
2022/12/02 06:43:01;;;;;;;1999.90;999.90;;;4.20;99.90;;;;;;4975551;28;20378;-74
2022/12/02 06:45:31;;;;;;;1999.90;999.90;;;4.20;99.90;;;;;;4975158;28;20047;-73
2022/12/02 06:48:11;;;;;;;1999.90;999.90;;;4.20;99.90;;;;;;4974825;28;20413;-73
2022/12/02 06:50:40;;;;;;;1999.90;999.90;;;4.20;99.90;;;;;;4976459;28;20035;-74
2022/12/02 06:53:36;;;;;;;1999.90;999.90;;;4.20;99.90;;;;;;4976573;28;20063;-74
2022/12/02 06:56:16;;;;;;;1999.90;999.90;;;4.20;99.90;;;;;;4977009;28;20512;-74
2022/12/02 06:58:52;;;;;;;1999.90;999.90;;;4.20;99.90;;;;;;4975197;28;20167;-74
2022/12/02 07:01:41;;;;;;;1999.90;999.90;;;4.20;99.90;;;;;;4976719;28;20044;-74
2022/12/02 07:04:34;;;;;;;1999.90;999.90;;;4.20;99.90;;;;;;4974838;28;20042;-75
2022/12/02 07:07:20;;;;;;;1999.90;999.90;;;4.10;99.90;;;;;;4976726;28;20035;-74
2022/12/02 07:09:54;;;;;;;1999.90;999.90;;;4.10;99.90;;;;;;4976495;28;20031;-74
2022/12/02 07:12:30;;;;;;;1999.90;999.90;;;4.10;99.90;;;;;;4976045;28;20532;-74
2022/12/02 07:14:57;;;;;;;1999.90;999.90;;;4.00;99.90;;;;;;4976650;28;20122;-74
2022/12/02 07:17:33;;;;;;;1999.90;999.90;;;4.10;99.90;;;;;;4976507;28;20043;-76
2022/12/02 07:20:05;;;;;;;1999.90;999.90;;;4.10;99.90;;;;;;4991564;28;20034;-76
2022/12/02 07:22:43;;;;;;;1999.90;999.90;;;4.20;99.90;;;;;;4995858;28;20034;-76
2022/12/02 07:25:08;;;;;;;1999.90;999.90;;;4.10;99.90;;;;;;4996192;28;20055;-75
2022/12/02 07:27:38;;;;;;;1999.90;999.90;;;4.20;99.90;;;;;;4995787;28;20035;-75
2022/12/02 07:30:30;;;;;;;1999.90;999.90;;;4.20;99.90;;;;;;4995412;28;20424;-78
2022/12/02 07:32:55;;;;;;;1999.90;999.90;;;4.10;99.90;;;;;;4995708;28;20488;-74
2022/12/02 07:35:22;;;;;;;1999.90;999.90;;;4.20;99.90;;;;;;4996035;28;20035;-77
2022/12/02 07:37:48;;;;;;;1999.90;999.90;;;4.10;99.90;;;;;;4995797;28;20042;-74
2022/12/02 07:40:15;;;;;;;1999.90;999.90;;;4.20;99.90;;;;;;4995321;28;20031;-74
2022/12/02 07:42:42;;;;;;;1999.90;999.90;;;4.20;99.90;;;;;;4995539;28;20039;-73
2022/12/02 07:45:15;;;;;;;1999.90;999.90;;;4.20;99.90;;;;;;4995127;28;20130;-73
2022/12/02 07:47:40;;;;;;;1999.90;999.90;;;4.10;99.90;;;;;;4995116;28;20035;-73
2022/12/02 07:50:08;;;;;;;1999.90;999.90;;;4.20;99.90;;;;;;4998693;28;20039;-73
2022/12/02 07:52:34;;;;;;;1999.90;999.90;;;4.20;99.90;;;;;;4993275;28;20556;-72
2022/12/02 07:55:00;;;;;;;1999.90;999.90;;;4.20;99.90;;;;;;4994890;28;20125;-72
2022/12/02 07:57:26;;;;;;;1999.90;999.90;;;4.20;99.90;;;;;;4993149;28;20041;-72
2022/12/02 07:59:52;;;;;;;1999.90;999.90;;;4.10;99.90;;;;;;4980324;28;20412;-72
2022/12/02 08:02:18;;;;;;;1999.90;999.90;;;4.20;99.90;;;;;;4974992;28;20039;-72
2022/12/02 08:04:43;;;;;;;1999.90;999.90;;;4.20;99.90;;;;;;4975356;28;20075;-75
2022/12/02 08:07:09;;;;;;;1999.90;999.90;;;4.10;99.90;;;;;;4974980;28;20490;-73
2022/12/02 08:09:34;;;;;;;1999.90;999.90;;;4.10;99.90;;;;;;4975182;28;20208;-73
2022/12/02 08:12:00;;;;;;;1999.90;999.90;;;4.20;99.90;;;;;;4972927;28;20035;-72
2022/12/02 08:14:26;;;;;;;1999.90;999.90;;;4.10;99.90;;;;;;4974884;28;20035;-72
2022/12/02 08:16:51;;;;;;;1999.90;999.90;;;4.20;99.90;;;;;;4975624;28;20160;-73
2022/12/02 08:19:17;;;;;;;1999.90;999.90;;;4.10;99.90;;;;;;4973857;28;20027;-75
2022/12/02 08:21:43;;;;;;;1999.90;999.90;;;4.10;99.90;;;;;;4974976;28;20035;-75
2022/12/02 08:24:08;;;;;;;1999.90;999.90;;;4.10;99.90;;;;;;4975476;28;20077;-76
2022/12/02 08:26:34;;;;;;;1999.90;999.90;;;4.10;99.90;;;;;;4976250;28;20047;-77
2022/12/02 08:29:00;;;;;;;1999.90;999.90;;;4.20;99.90;;;;;;4976189;28;20070;-78
2022/12/02 08:31:26;;;;;;;1999.90;999.90;;;4.20;99.90;;;;;;4975947;28;20460;-77
2022/12/02 08:33:51;;;;;;;1999.90;999.90;;;4.20;99.90;;;;;;4975971;28;20127;-77
2022/12/02 08:36:18;;;;;;;1999.90;999.90;;;4.10;99.90;;;;;;4974307;28;20027;-77
2022/12/02 08:38:44;;;;;;;1999.90;999.90;;;4.10;99.90;;;;;;4975848;28;20572;-77
2022/12/02 08:41:10;;;;;;;1999.90;999.90;;;4.20;99.90;;;;;;4976246;28;20042;-77
2022/12/02 08:43:36;;;;;;;1999.90;999.90;;;4.10;99.90;;;;;;4977166;28;20032;-77
2022/12/02 08:46:02;;;;;;;1999.90;999.90;;;4.10;99.90;;;;;;4976673;28;20043;-78
2022/12/02 08:48:27;;;;;;;1999.90;999.90;;;4.10;99.90;;;;;;4977367;28;20501;-78
2022/12/02 08:50:53;;;;;;;1999.90;999.90;;;4.10;99.90;;;;;;4977006;28;20038;-78
2022/12/02 08:53:20;;;;;;;1999.90;999.90;;;4.00;99.90;;;;;;4978536;28;20028;-78
2022/12/02 08:55:46;;;;;;;1999.90;999.90;;;4.00;99.90;;;;;;4979545;28;20046;-77
2022/12/02 08:58:11;;;;;;;1999.90;999.90;;;3.90;99.90;;;;;;4976633;28;20043;-77
2022/12/02 09:00:38;;;;;;;1999.90;999.90;;;4.00;99.90;;;;;;4976238;28;20047;-77
2022/12/02 09:03:05;;;;;;;1999.90;999.90;;;4.00;99.90;;;;;;4977996;28;20034;-78
2022/12/02 09:05:31;;;;;;;1999.90;999.90;;;3.90;99.90;;;;;;4978928;28;20090;-77
2022/12/02 09:07:56;;;;;;;1999.90;999.90;;;4.00;99.90;;;;;;4978751;28;20390;-76
2022/12/02 09:10:22;;;;;;;1999.90;999.90;;;3.90;99.90;;;;;;4979681;28;20051;-77
2022/12/02 09:12:47;;;;;;;1999.90;999.90;;;3.90;99.90;;;;;;4980363;28;20032;-78
2022/12/02 09:15:13;;;;;;;1999.90;999.90;;;3.90;99.90;;;;;;4981775;28;20069;-76
2022/12/02 09:17:39;;;;;;;1999.90;999.90;;;3.90;99.90;;;;;;4982725;28;20450;-77
2022/12/02 09:20:05;;;;;;;1999.90;999.90;;;3.90;99.90;;;;;;4981906;28;20043;-77
2022/12/02 09:22:30;;;;;;;1999.90;999.90;;;4.00;99.90;;;;;;4981549;28;20027;-77
2022/12/02 09:24:56;;;;;;;1999.90;999.90;;;4.00;99.90;;;;;;4981944;28;20122;-78
2022/12/02 09:27:22;;;;;;;1999.90;999.90;;;4.00;99.90;;;;;;4977974;28;20031;-77
2022/12/02 09:29:47;;;;;;;1999.90;999.90;;;3.90;99.90;;;;;;5003301;28;20043;-76
2022/12/02 09:32:13;;;;;;;1999.90;999.90;;;3.80;99.90;;;;;;5018639;28;20041;-77
2022/12/02 09:34:38;;;;;;;1999.90;999.90;;;3.90;99.90;;;;;;5016121;28;20034;-75
2022/12/02 09:37:04;;;;;;;1999.90;999.90;;;3.80;99.90;;;;;;5015792;28;20034;-74
2022/12/02 09:39:29;;;;;;;1999.90;999.90;;;3.70;99.90;;;;;;5017085;28;20038;-75
2022/12/02 09:41:55;;;;;;;1999.90;999.90;;;3.80;99.90;;;;;;5016681;28;20034;-75
2022/12/02 09:44:21;;;;;;;1999.90;999.90;;;3.70;99.90;;;;;;5010869;28;20047;-75
2022/12/02 09:46:46;;;;;;;1999.90;999.90;;;3.60;99.90;;;;;;4978440;28;20039;-75
2022/12/02 09:49:12;;;;;;;1999.90;999.90;;;3.60;99.90;;;;;;4985321;28;20032;-74
2022/12/02 09:51:38;;;;;;;1999.90;999.90;;;3.60;99.90;;;;;;4983566;28;20043;-75
2022/12/02 09:54:03;;;;;;;1999.90;999.90;;;3.70;99.90;;;;;;4978604;28;20090;-75
2022/12/02 09:56:29;;;;;;;1999.90;999.90;;;3.70;99.90;;;;;;4978656;28;20039;-75
2022/12/02 09:58:55;;;;;;;1999.90;999.90;;;3.70;99.90;;;;;;4978364;28;20113;-75
2022/12/02 10:01:23;;;;;;;1999.90;999.90;;;3.90;99.90;;;;;;4978150;28;20046;-81
2022/12/02 10:03:50;;;;;;;1999.90;999.90;;;3.80;99.90;;;;;;4978315;28;20031;-75
2022/12/02 10:06:22;;;;;;;1999.90;999.90;;;3.80;99.90;;;;;;4977091;28;20492;-75
2022/12/02 10:08:48;;;;;;;1999.90;999.90;;;3.80;99.90;;;;;;4979500;28;20035;-75
2022/12/02 10:11:23;;;;;;;1999.90;999.90;;;3.80;99.90;;;;;;4977019;28;20087;-75
2022/12/02 10:13:49;;;;;;;1999.90;999.90;;;3.70;99.90;;;;;;4978659;28;20142;-75
2022/12/02 10:16:15;;;;;;;1999.90;999.90;;;3.70;99.90;;;;;;4979139;28;20043;-74
2022/12/02 10:18:41;;;;;;;1999.90;999.90;;;3.70;99.90;;;;;;4978387;28;20031;-75
2022/12/02 10:21:07;;;;;;;1999.90;999.90;;;3.70;99.90;;;;;;4978175;28;20039;-75
2022/12/02 10:23:52;;;;;;;1999.90;999.90;;;3.70;99.90;;;;;;4978215;28;20046;-75
2022/12/02 10:26:17;;;;;;;1999.90;999.90;;;3.70;99.90;;;;;;4976600;28;20143;-75
2022/12/02 10:29:01;;;;;;;1999.90;999.90;;;3.60;99.90;;;;;;4978421;28;20449;-76
2022/12/02 10:31:26;;;;;;;1999.90;999.90;;;3.60;99.90;;;;;;4976789;28;20032;-75
2022/12/02 10:34:05;;;;;;;1999.90;999.90;;;3.50;99.90;;;;;;4977978;28;20525;-74
2022/12/02 10:36:31;;;;;;;1999.90;999.90;;;3.60;99.90;;;;;;4980876;28;20031;-75
2022/12/02 10:39:23;;;;;;;1999.90;999.90;;;3.60;99.90;;;;;;4977668;28;20040;-74
2022/12/02 10:42:06;;;;;;;1999.90;999.90;;;3.60;99.90;;;;;;4976547;28;20114;-75
2022/12/02 10:44:35;;;;;;;1999.90;999.90;;;3.60;99.90;;;;;;4979725;28;20043;-75
2022/12/02 10:47:21;;;;;;;1999.90;999.90;;;3.60;99.90;;;;;;4981340;28;20035;-74
2022/12/02 10:49:55;;;;;;;1999.90;999.90;;;3.60;99.90;;;;;;4980684;28;20493;-75
2022/12/02 10:52:44;;;;;;;1999.90;999.90;;;3.60;99.90;;;;;;4978975;28;20572;-75
2022/12/02 10:55:10;;;;;;;1999.90;999.90;;;3.70;99.90;;;;;;4979366;28;20126;-75
2022/12/02 10:57:37;;;;;;;1999.90;999.90;;;3.70;99.90;;;;;;4978282;28;20027;-75
2022/12/02 11:00:12;;;;;;;1999.90;999.90;;;3.70;99.90;;;;;;4975637;28;20068;-75
2022/12/02 11:02:45;;;;;;;1999.90;999.90;;;3.80;99.90;;;;;;4978008;28;20039;-76
2022/12/02 11:05:20;;;;;;;1999.90;999.90;;;3.80;99.90;;;;;;4975562;28;20047;-75
2022/12/02 11:07:59;;;;;;;1999.90;999.90;;;3.80;99.90;;;;;;4976315;28;20114;-75
2022/12/02 11:10:27;;;;;;;1999.90;999.90;;;3.80;99.90;;;;;;4975280;28;20563;-75
2022/12/02 11:12:53;;;;;;;1999.90;999.90;;;3.80;99.90;;;;;;4976756;28;20035;-75
2022/12/02 11:15:40;;;;;;;1999.90;999.90;;;3.70;99.90;;;;;;4976166;28;20501;-76
2022/12/02 11:18:08;;;;;;;1999.90;999.90;;;3.70;99.90;;;;;;4976452;28;20023;-76
2022/12/02 11:20:35;;;;;;;1999.90;999.90;;;3.70;99.90;;;;;;4976145;28;20035;-75
2022/12/02 11:23:00;;;;;;;1999.90;999.90;;;3.70;99.90;;;;;;4975102;28;20088;-76
2022/12/02 11:25:41;;;;;;;1999.90;999.90;;;3.60;99.90;;;;;;4976446;28;20090;-78
2022/12/02 11:28:28;;;;;;;1999.90;999.90;;;3.60;99.90;;;;;;4976304;28;20170;-74
2022/12/02 11:31:09;;;;;;;1999.90;999.90;;;3.60;99.90;;;;;;4997785;23;20043;-77
2022/12/02 11:33:46;;;;;;;1999.90;999.90;;;3.70;99.90;;;;;;4976088;28;20544;-75
2022/12/02 11:36:17;;;;;;;1999.90;999.90;;;3.70;99.90;;;;;;4975299;28;20133;-77
2022/12/02 11:38:51;;;;;;;1999.90;999.90;;;3.60;99.90;;;;;;4975940;28;20062;-76
2022/12/02 11:41:19;;;;;;;1999.90;999.90;;;3.60;99.90;;;;;;4964099;28;20032;-77
2022/12/02 11:43:44;;;;;;;1999.90;999.90;;;3.60;99.90;;;;;;4958497;28;20047;-76
2022/12/02 11:46:14;;;;;;;1999.90;999.90;;;3.70;99.90;;;;;;4956424;28;20043;-75
2022/12/02 11:48:52;;;;;;;1999.90;999.90;;;3.70;99.90;;;;;;4956251;28;20053;-78
2022/12/02 11:51:42;;;;;;;1999.90;999.90;;;3.70;99.90;;;;;;4956419;28;20032;-79
2022/12/02 11:54:13;;;;;;;1999.90;999.90;;;3.70;99.90;;;;;;4959590;28;20075;-78
2022/12/02 11:56:39;;;;;;;1999.90;999.90;;;3.70;99.90;;;;;;4959088;28;20484;-76
2022/12/02 11:59:22;;;;;;;1999.90;999.90;;;3.70;99.90;;;;;;4956526;28;20036;-77
2022/12/02 12:01:48;;;;;;;1999.90;999.90;;;3.70;99.90;;;;;;4957346;28;20055;-77
2022/12/02 12:04:27;;;;;;;1999.90;999.90;;;3.70;99.90;;;;;;4958659;28;20032;-78
2022/12/02 12:06:56;;;;;;;1999.90;999.90;;;3.70;99.90;;;;;;4955934;28;20040;-77
2022/12/02 12:09:21;;;;;;;1999.90;999.90;;;3.70;99.90;;;;;;4958032;28;20046;-77
2022/12/02 12:12:05;;;;;;;1999.90;999.90;;;3.60;99.90;;;;;;4960102;28;20386;-78
2022/12/02 12:14:30;;;;;;;1999.90;999.90;;;3.70;99.90;;;;;;4958670;28;20040;-75
2022/12/02 12:17:16;;;;;;;1999.90;999.90;;;3.70;99.90;;;;;;4979445;28;20019;-76
2022/12/02 12:19:42;;;;;;;1999.90;999.90;;;3.70;99.90;;;;;;4965387;28;20051;-75
2022/12/02 12:22:25;;;;;;;1999.90;999.90;;;3.70;99.90;;;;;;4956604;28;20043;-77
2022/12/02 12:24:51;;;;;;;1999.90;999.90;;;3.60;99.90;;;;;;4942343;28;20079;-75
2022/12/02 12:27:36;;;;;;;1999.90;999.90;;;3.60;99.90;;;;;;4937217;28;20060;-75
2022/12/02 12:30:04;;;;;;;1999.90;999.90;;;3.60;99.90;;;;;;4948389;28;20583;-77
2022/12/02 12:32:30;;;;;;;1999.90;999.90;;;3.60;99.90;;;;;;4953646;28;20047;-77
2022/12/02 12:34:56;;;;;;;1999.90;999.90;;;3.60;99.90;;;;;;4955362;28;20049;-77
2022/12/02 12:37:21;;;;;;;1999.90;999.90;;;3.50;99.90;;;;;;4954614;28;20114;-77
2022/12/02 12:39:47;;;;;;;1999.90;999.90;;;3.50;99.90;;;;;;4945407;28;20067;-76
2022/12/02 12:42:13;;;;;;;1999.90;999.90;;;3.50;99.90;;;;;;4950609;28;20423;-74
2022/12/02 12:44:38;;;;;;;1999.90;999.90;;;3.50;99.90;;;;;;4952844;28;20048;-75
2022/12/02 12:47:05;;;;;;;1999.90;999.90;;;3.50;99.90;;;;;;4958967;28;20043;-75
2022/12/02 12:49:32;;;;;;;1999.90;999.90;;;3.50;99.90;;;;;;4958963;28;20098;-75
2022/12/02 12:51:58;;;;;;;1999.90;999.90;;;3.50;99.90;;;;;;4958680;28;20148;-75
2022/12/02 12:54:24;;;;;;;1999.90;999.90;;;3.50;99.90;;;;;;4958135;28;20525;-75
2022/12/02 12:56:50;;;;;;;1999.90;999.90;;;3.40;99.90;;;;;;4957676;28;20096;-75
2022/12/02 12:59:15;;;;;;;1999.90;999.90;;;3.40;99.90;;;;;;4959333;28;20059;-75
2022/12/02 13:01:42;;;;;;;1999.90;999.90;;;3.40;99.90;;;;;;4958728;28;20111;-75
2022/12/02 13:04:08;;;;;;;1999.90;999.90;;;3.30;99.90;;;;;;4959643;28;20096;-75
2022/12/02 13:06:37;;;;;;;1999.90;999.90;;;3.20;99.90;;;;;;4958851;28;20096;-75
2022/12/02 13:09:04;;;;;;;1999.90;999.90;;;3.30;99.90;;;;;;4958867;28;20031;-75
2022/12/02 13:11:29;;;;;;;1999.90;999.90;;;3.30;99.90;;;;;;4956885;28;20123;-75
2022/12/02 13:13:55;;;;;;;1999.90;999.90;;;3.30;99.90;;;;;;4958904;28;20104;-75
2022/12/02 13:16:20;;;;;;;1999.90;999.90;;;3.30;99.90;;;;;;4958496;28;20039;-75
2022/12/02 13:18:46;;;;;;;1999.90;999.90;;;3.30;99.90;;;;;;4959405;28;20481;-75
2022/12/02 13:21:11;;;;;;;1999.90;999.90;;;3.30;99.90;;;;;;4958573;28;20332;-75
2022/12/02 13:23:37;;;;;;;1999.90;999.90;;;3.30;99.90;;;;;;4958759;28;20036;-75
2022/12/02 13:26:03;;;;;;;1999.90;999.90;;;3.30;99.90;;;;;;4957260;28;20390;-75
2022/12/02 13:28:28;;;;;;;1999.90;999.90;;;3.30;99.90;;;;;;4958732;28;20032;-75
2022/12/02 13:30:54;;;;;;;1999.90;999.90;;;3.30;99.90;;;;;;4957454;28;20035;-75
2022/12/02 13:33:20;;;;;;;1999.90;999.90;;;3.30;99.90;;;;;;4958648;28;20139;-75
2022/12/02 13:35:46;;;;;;;1999.90;999.90;;;3.30;99.90;;;;;;4958595;28;20076;-75
2022/12/02 13:38:15;;;;;;;1999.90;999.90;;;3.30;99.90;;;;;;4958509;28;20110;-75
2022/12/02 13:40:41;;;;;;;1999.90;999.90;;;3.30;99.90;;;;;;4957902;28;20035;-75
2022/12/02 13:43:09;;;;;;;1999.90;999.90;;;3.20;99.90;;;;;;4957159;28;20035;-75
2022/12/02 13:45:35;;;;;;;1999.90;999.90;;;3.20;99.90;;;;;;4958142;28;20051;-75
2022/12/02 13:48:00;;;;;;;1999.90;999.90;;;3.20;99.90;;;;;;4958695;28;20077;-75
2022/12/02 13:50:26;;;;;;;1999.90;999.90;;;3.20;99.90;;;;;;4958461;28;20027;-75
2022/12/02 13:52:52;;;;;;;1999.90;999.90;;;3.30;99.90;;;;;;4958324;28;20122;-75
2022/12/02 13:55:17;;;;;;;1999.90;999.90;;;3.30;99.90;;;;;;4957429;28;20039;-75
2022/12/02 13:57:43;;;;;;;1999.90;999.90;;;3.30;99.90;;;;;;4957097;28;20040;-75
2022/12/02 14:00:11;;;;;;;1999.90;999.90;;;3.30;99.90;;;;;;4958040;28;20048;-75
2022/12/02 14:02:36;;;;;;;1999.90;999.90;;;3.30;99.90;;;;;;4957982;28;20092;-75
2022/12/02 14:05:02;;;;;;;1999.90;999.90;;;3.20;99.90;;;;;;4958225;28;20516;-75
2022/12/02 14:07:28;;;;;;;1999.90;999.90;;;3.20;99.90;;;;;;4958010;28;20814;-76
2022/12/02 14:09:53;;;;;;;1999.90;999.90;;;3.20;99.90;;;;;;4957403;28;20060;-75
2022/12/02 14:12:19;;;;;;;1999.90;999.90;;;3.20;99.90;;;;;;4958233;28;20112;-75
2022/12/02 14:14:44;;;;;;;1999.90;999.90;;;3.30;99.90;;;;;;4958080;28;20096;-75
2022/12/02 14:17:10;;;;;;;1999.90;999.90;;;3.30;99.90;;;;;;4957900;28;20036;-75
2022/12/02 14:19:35;;;;;;;1999.90;999.90;;;3.30;99.90;;;;;;4957570;28;20080;-75
2022/12/02 14:22:01;;;;;;;1999.90;999.90;;;3.30;99.90;;;;;;4957629;28;20031;-75
2022/12/02 14:24:26;;;;;;;1999.90;999.90;;;3.20;99.90;;;;;;4957578;28;20043;-75
2022/12/02 14:26:52;;;;;;;1999.90;999.90;;;3.20;99.90;;;;;;4957429;28;20043;-75
2022/12/02 14:29:17;;;;;;;1999.90;999.90;;;3.20;99.90;;;;;;4957765;28;20458;-75
2022/12/02 14:31:43;;;;;;;1999.90;999.90;;;3.10;99.90;;;;;;4957247;28;20463;-75
2022/12/02 14:34:08;;;;;;;1999.90;999.90;;;3.10;99.90;;;;;;4957448;28;20572;-75
2022/12/02 14:36:34;;;;;;;1999.90;999.90;;;3.10;99.90;;;;;;4957752;28;20501;-75
2022/12/02 14:38:59;;;;;;;1999.90;999.90;;;3.10;99.90;;;;;;4957151;28;20119;-75
2022/12/02 14:41:25;;;;;;;1999.90;999.90;;;3.10;99.90;;;;;;4955764;28;20471;-75
2022/12/02 14:43:51;;;;;;;1999.90;999.90;;;3.10;99.90;;;;;;4957310;28;20442;-75
2022/12/02 14:46:17;;;;;;;1999.90;999.90;;;3.10;99.90;;;;;;4957541;28;20416;-75
2022/12/02 14:48:43;;;;;;;1999.90;999.90;;;3.10;99.90;;;;;;4957380;28;20048;-75
2022/12/02 14:51:09;;;;;;;1999.90;999.90;;;3.10;99.90;;;;;;4956906;28;20481;-75
2022/12/02 14:53:34;;;;;;;1999.90;999.90;;;3.10;99.90;;;;;;4956878;28;20039;-75
2022/12/02 14:56:00;;;;;;;1999.90;999.90;;;3.00;99.90;;;;;;4957267;28;20451;-75
2022/12/02 14:58:25;;;;;;;1999.90;999.90;;;3.00;99.90;;;;;;4957376;28;20092;-75
2022/12/02 15:00:51;;;;;;;1999.90;999.90;;;3.00;99.90;;;;;;4957260;28;20040;-75
2022/12/02 15:03:17;;;;;;;1999.90;999.90;;;3.00;99.90;;;;;;4957158;28;20043;-75
2022/12/02 15:05:42;;;;;;;1999.90;999.90;;;2.90;99.90;;;;;;4956986;28;20528;-75
2022/12/02 15:08:08;;;;;;;1999.90;999.90;;;2.90;99.90;;;;;;4955261;28;20028;-75
2022/12/02 15:10:33;;;;;;;1999.90;999.90;;;3.00;99.90;;;;;;4956711;28;20097;-75
2022/12/02 15:12:59;;;;;;;1999.90;999.90;;;3.00;99.90;;;;;;4957096;28;20039;-75
2022/12/02 15:15:24;;;;;;;1999.90;999.90;;;3.00;99.90;;;;;;4957367;28;20134;-75
2022/12/02 15:17:50;;;;;;;1999.90;999.90;;;3.00;99.90;;;;;;4957249;28;20389;-75
2022/12/02 15:20:15;;;;;;;1999.90;999.90;;;3.00;99.90;;;;;;4956456;28;20030;-75
2022/12/02 15:22:41;;;;;;;1999.90;999.90;;;3.00;99.90;;;;;;4956952;28;20090;-75
2022/12/02 15:25:07;;;;;;;1999.90;999.90;;;3.00;99.90;;;;;;4967401;28;20028;-75
2022/12/02 15:27:32;;;;;;;1999.90;999.90;;;3.00;99.90;;;;;;4981636;28;20040;-75
2022/12/02 15:29:58;;;;;;;1999.90;999.90;;;3.00;99.90;;;;;;4966425;28;20047;-75
2022/12/02 15:32:23;;;;;;;1999.90;999.90;;;3.00;99.90;;;;;;4956629;28;20135;-75
2022/12/02 15:34:49;;;;;;;1999.90;999.90;;;3.00;99.90;;;;;;4957119;28;20063;-75
2022/12/02 15:37:14;;;;;;;1999.90;999.90;;;3.00;99.90;;;;;;4957075;28;20035;-75
2022/12/02 15:39:40;;;;;;;1999.90;999.90;;;3.00;99.90;;;;;;4957021;28;20035;-75
2022/12/02 15:42:06;;;;;;;1999.90;999.90;;;3.00;99.90;;;;;;4956794;28;20036;-75
2022/12/02 15:44:31;;;;;;;1999.90;999.90;;;3.00;99.90;;;;;;4957413;28;20167;-75
2022/12/02 15:46:58;;;;;;;1999.90;999.90;;;3.00;99.90;;;;;;4957388;28;20056;-76
2022/12/02 15:49:23;;;;;;;1999.90;999.90;;;3.00;99.90;;;;;;4957401;28;20043;-75
2022/12/02 15:51:49;;;;;;;1999.90;999.90;;;3.00;99.90;;;;;;4956214;28;20084;-76
2022/12/02 15:54:14;;;;;;;1999.90;999.90;;;3.10;99.90;;;;;;4955214;28;20040;-75
2022/12/02 15:56:40;;;;;;;1999.90;999.90;;;3.00;99.90;;;;;;4957319;28;20036;-75
2022/12/02 15:59:05;;;;;;;1999.90;999.90;;;3.00;99.90;;;;;;4956806;28;20047;-77
2022/12/02 16:01:31;;;;;;;1999.90;999.90;;;3.00;99.90;;;;;;4955120;28;20087;-74
2022/12/02 16:03:57;;;;;;;1999.90;999.90;;;3.00;99.90;;;;;;4958109;28;20087;-75
2022/12/02 16:06:23;;;;;;;1999.90;999.90;;;3.10;99.90;;;;;;4958749;28;20035;-75
2022/12/02 16:08:48;;;;;;;1999.90;999.90;;;3.00;99.90;;;;;;4958099;28;20043;-75
2022/12/02 16:11:15;;;;;;;1999.90;999.90;;;3.00;99.90;;;;;;4955922;28;20036;-75
2022/12/02 16:13:40;;;;;;;1999.90;999.90;;;3.00;99.90;;;;;;4956341;28;20028;-75
2022/12/02 16:16:07;;;;;;;1999.90;999.90;;;3.00;99.90;;;;;;4954652;28;20036;-75
2022/12/02 16:18:33;;;;;;;1999.90;999.90;;;3.00;99.90;;;;;;4956031;28;20048;-75
2022/12/02 16:20:59;;;;;;;1999.90;999.90;;;3.10;99.90;;;;;;4953466;28;20047;-75
2022/12/02 16:23:24;;;;;;;1999.90;999.90;;;3.10;99.90;;;;;;4956670;28;20035;-75
2022/12/02 16:25:50;;;;;;;1999.90;999.90;;;3.10;99.90;;;;;;4956154;28;20501;-75
2022/12/02 16:28:15;;;;;;;1999.90;999.90;;;3.10;99.90;;;;;;4956348;28;20475;-75
2022/12/02 16:30:41;;;;;;;1999.90;999.90;;;3.10;99.90;;;;;;4955249;28;20550;-75
2022/12/02 16:33:06;;;;;;;1999.90;999.90;;;3.10;99.90;;;;;;4957549;28;20067;-74
2022/12/02 16:35:32;;;;;;;1999.90;999.90;;;3.10;99.90;;;;;;4956817;28;20031;-74
2022/12/02 16:37:58;;;;;;;1999.90;999.90;;;3.10;99.90;;;;;;4957586;28;20038;-74
2022/12/02 16:40:23;;;;;;;1999.90;999.90;;;3.00;99.90;;;;;;4957074;28;20047;-74
2022/12/02 16:42:49;;;;;;;1999.90;999.90;;;3.10;99.90;;;;;;4955826;28;20036;-75
2022/12/02 16:45:14;;;;;;;1999.90;999.90;;;3.10;99.90;;;;;;4955886;28;20040;-74
2022/12/02 16:47:40;;;;;;;1999.90;999.90;;;3.00;99.90;;;;;;4957713;28;20032;-75
2022/12/02 16:50:06;;;;;;;1999.90;999.90;;;3.10;99.90;;;;;;4957202;28;20485;-75
2022/12/02 16:52:31;;;;;;;1999.90;999.90;;;3.10;99.90;;;;;;4956112;28;20455;-75
2022/12/02 16:54:57;;;;;;;1999.90;999.90;;;3.10;99.90;;;;;;4957612;28;20039;-75
2022/12/02 16:57:22;;;;;;;1999.90;999.90;;;3.10;99.90;;;;;;4957269;28;20046;-74
2022/12/02 16:59:48;;;;;;;1999.90;999.90;;;3.20;99.90;;;;;;4957134;28;20054;-75
2022/12/02 17:02:13;;;;;;;1999.90;999.90;;;3.20;99.90;;;;;;4956081;28;20058;-75
2022/12/02 17:04:39;;;;;;;1999.90;999.90;;;3.20;99.90;;;;;;4956786;28;20040;-74
2022/12/02 17:07:05;;;;;;;1999.90;999.90;;;3.20;99.90;;;;;;4956562;28;20028;-77
2022/12/02 17:09:39;;;;;;;1999.90;999.90;;;3.20;99.90;;;;;;4958717;28;20493;-76
2022/12/02 17:12:05;;;;;;;1999.90;999.90;;;3.20;99.90;;;;;;4958279;28;20039;-76
2022/12/02 17:14:31;;;;;;;1999.90;999.90;;;3.20;99.90;;;;;;4957213;28;20046;-75